createdAt,value
2022-11-11T00:02:15.836Z,12.45
2022-11-11T00:05:04.998Z,12.45
2022-11-11T00:07:59.622Z,12.49
2022-11-11T00:10:49.039Z,12.46
2022-11-11T00:13:38.872Z,12.47
2022-11-11T00:16:49.131Z,12.29
2022-11-11T00:19:56.631Z,12.41
2022-11-11T00:23:03.756Z,12.30
2022-11-11T00:26:11.557Z,12.39
2022-11-11T00:29:04.646Z,12.42
2022-11-11T00:32:12.139Z,12.49
2022-11-11T00:35:19.610Z,12.27
2022-11-11T00:38:10.043Z,12.22
2022-11-11T00:41:00.612Z,12.34
2022-11-11T00:43:50.414Z,12.21
2022-11-11T00:46:58.151Z,12.16
2022-11-11T00:50:05.647Z,12.19
2022-11-11T00:52:56.303Z,12.15
2022-11-11T00:55:45.688Z,12.15
2022-11-11T00:58:35.367Z,12.14
2022-11-11T01:01:24.590Z,12.27
2022-11-11T01:04:14.197Z,12.13
2022-11-11T01:07:04.180Z,12.05
2022-11-11T01:09:54.258Z,12.10
2022-11-11T01:12:44.302Z,12.06
2022-11-11T01:15:35.728Z,12.05
2022-11-11T01:18:27.377Z,12.26
2022-11-11T01:21:18.309Z,12.03
2022-11-11T01:24:08.514Z,12.00
2022-11-11T01:26:58.211Z,12.08
2022-11-11T01:29:48.619Z,12.16
2022-11-11T01:32:39.087Z,12.18
2022-11-11T01:35:28.833Z,12.04
2022-11-11T01:38:17.956Z,12.16
2022-11-11T01:41:22.825Z,12.12
2022-11-11T01:44:20.303Z,12.22
2022-11-11T01:47:10.290Z,12.37
2022-11-11T01:50:03.842Z,12.27
2022-11-11T01:52:53.982Z,12.31
2022-11-11T01:55:44.222Z,12.24
2022-11-11T01:58:33.856Z,12.26
2022-11-11T02:01:23.714Z,12.27
2022-11-11T02:04:31.237Z,12.14
2022-11-11T02:07:21.583Z,12.01
2022-11-11T02:10:11.732Z,11.99
2022-11-11T02:13:18.881Z,11.94
2022-11-11T02:16:09.268Z,11.88
2022-11-11T02:18:58.710Z,11.90
2022-11-11T02:21:52.419Z,11.86
2022-11-11T02:24:43.712Z,11.90
2022-11-11T02:27:36.235Z,11.82
2022-11-11T02:30:25.977Z,11.76
2022-11-11T02:33:15.663Z,11.85
2022-11-11T02:36:06.383Z,11.76
2022-11-11T02:38:57.167Z,11.67
2022-11-11T02:42:00.882Z,11.62
2022-11-11T02:44:50.043Z,11.64
2022-11-11T02:47:39.204Z,11.83
2022-11-11T02:50:28.812Z,11.88
2022-11-11T02:53:18.747Z,11.92
2022-11-11T02:56:08.887Z,11.90
2022-11-11T02:58:58.727Z,11.65
2022-11-11T03:01:48.088Z,11.63
2022-11-11T03:04:38.479Z,11.53
2022-11-11T03:07:28.380Z,11.58
2022-11-11T03:10:18.475Z,11.64
2022-11-11T03:13:08.182Z,11.64
2022-11-11T03:15:58.328Z,11.51
2022-11-11T03:18:48.013Z,11.53
2022-11-11T03:25:05.149Z,11.40
2022-11-11T03:27:55.203Z,11.42
2022-11-11T03:30:46.158Z,11.42
2022-11-11T03:33:35.439Z,11.41
2022-11-11T03:36:44.775Z,11.38
2022-11-11T03:39:34.551Z,11.55
2022-11-11T03:42:24.133Z,11.44
2022-11-11T03:45:13.843Z,11.47
2022-11-11T03:48:03.167Z,11.37
2022-11-11T03:50:52.974Z,11.31
2022-11-11T03:53:42.314Z,11.34
2022-11-11T03:56:32.080Z,11.39
2022-11-11T03:59:21.640Z,11.42
2022-11-11T04:02:29.774Z,11.30
2022-11-11T04:05:36.850Z,11.32
2022-11-11T04:08:43.418Z,11.23
2022-11-11T04:11:34.310Z,11.00
2022-11-11T04:14:52.684Z,11.12
2022-11-11T04:17:42.986Z,11.15
2022-11-11T04:20:50.046Z,11.00
2022-11-11T04:23:39.499Z,10.92
2022-11-11T04:26:29.801Z,10.87
2022-11-11T04:29:32.048Z,10.87
2022-11-11T04:32:39.506Z,10.87
2022-11-11T04:35:29.472Z,10.69
2022-11-11T04:38:36.068Z,10.77
2022-11-11T04:41:36.186Z,10.81
2022-11-11T04:44:48.534Z,10.64
2022-11-11T04:47:37.823Z,10.76
2022-11-11T04:50:28.597Z,10.83
2022-11-11T04:53:17.704Z,11.07
2022-11-11T04:56:25.735Z,10.85
2022-11-11T04:59:18.404Z,10.95
2022-11-11T05:02:26.368Z,11.05
2022-11-11T05:05:17.352Z,11.04
2022-11-11T05:08:24.923Z,11.08
2022-11-11T05:11:14.472Z,11.02
2022-11-11T05:14:34.264Z,10.95
2022-11-11T05:17:41.196Z,10.92
2022-11-11T05:20:48.279Z,11.07
2022-11-11T05:23:51.201Z,11.11
2022-11-11T05:26:40.311Z,11.21
2022-11-11T05:29:30.119Z,11.19
2022-11-11T05:32:20.063Z,11.10
2022-11-11T05:35:12.532Z,11.05
2022-11-11T05:38:22.675Z,11.05
2022-11-11T05:41:12.919Z,11.20
2022-11-11T05:44:02.482Z,11.27
2022-11-11T05:46:51.942Z,11.24
2022-11-11T05:49:43.791Z,11.18
2022-11-11T05:52:33.979Z,11.03
2022-11-11T05:55:23.495Z,11.08
2022-11-11T05:58:12.956Z,11.11
2022-11-11T06:01:01.964Z,11.06
2022-11-11T06:03:51.870Z,10.94
2022-11-11T06:06:41.526Z,10.98
2022-11-11T06:09:31.453Z,11.09
2022-11-11T06:12:20.739Z,10.96
2022-11-11T06:15:11.389Z,11.01
2022-11-11T06:18:00.760Z,10.92
2022-11-11T06:20:55.634Z,10.82
2022-11-11T06:23:45.216Z,10.94
2022-11-11T06:26:35.437Z,10.93
2022-11-11T06:29:25.902Z,10.88
2022-11-11T06:32:16.011Z,10.83
2022-11-11T06:35:05.889Z,10.88
2022-11-11T06:37:56.354Z,10.68
2022-11-11T06:40:46.256Z,10.62
2022-11-11T06:43:35.758Z,10.57
2022-11-11T06:46:25.753Z,10.76
2022-11-11T06:49:16.189Z,10.72
2022-11-11T06:52:05.345Z,10.61
2022-11-11T06:54:54.628Z,10.54
2022-11-11T06:57:44.649Z,10.70
2022-11-11T07:00:34.635Z,10.47
2022-11-11T07:03:25.730Z,10.40
2022-11-11T07:06:15.991Z,10.43
2022-11-11T07:09:05.995Z,10.39
2022-11-11T07:11:55.942Z,10.49
2022-11-11T07:14:45.918Z,10.63
2022-11-11T07:17:35.756Z,10.54
2022-11-11T07:20:25.059Z,10.54
2022-11-11T07:23:15.005Z,10.54
2022-11-11T07:26:04.306Z,10.56
2022-11-11T07:28:53.873Z,10.75
2022-11-11T07:31:43.496Z,10.87
2022-11-11T07:34:33.383Z,11.07
2022-11-11T07:37:23.344Z,11.06
2022-11-11T07:40:14.054Z,10.79
2022-11-11T07:43:03.633Z,10.86
2022-11-11T07:45:52.926Z,10.81
2022-11-11T07:48:42.788Z,10.65
2022-11-11T07:51:32.022Z,10.63
2022-11-11T07:54:21.279Z,10.79
2022-11-11T07:57:10.948Z,10.86
2022-11-11T08:00:00.186Z,10.88
2022-11-11T08:02:49.731Z,11.00
2022-11-11T08:05:38.956Z,10.85
2022-11-11T08:08:28.767Z,11.08
2022-11-11T08:11:39.409Z,11.07
2022-11-11T08:14:29.268Z,10.99
2022-11-11T08:17:18.890Z,11.06
2022-11-11T08:20:10.129Z,11.06
2022-11-11T08:23:38.136Z,11.10
2022-11-11T08:26:09.755Z,11.04
2022-11-11T08:28:59.476Z,10.97
2022-11-11T08:31:49.611Z,11.09
2022-11-11T08:34:38.636Z,11.27
2022-11-11T08:37:29.909Z,11.33
2022-11-11T08:40:20.432Z,11.35
2022-11-11T08:43:10.020Z,11.38
2022-11-11T08:45:59.993Z,11.37
2022-11-11T08:48:52.613Z,11.40
2022-11-11T08:51:44.993Z,11.36
2022-11-11T08:54:35.672Z,11.27
2022-11-11T08:57:25.350Z,11.32
2022-11-11T09:00:16.748Z,11.25
2022-11-11T09:03:07.001Z,11.50
2022-11-11T09:05:56.342Z,11.73
2022-11-11T09:08:46.186Z,11.72
2022-11-11T09:11:36.527Z,11.68
2022-11-11T09:14:25.952Z,11.64
2022-11-11T09:17:15.747Z,11.61
2022-11-11T09:20:05.739Z,11.62
2022-11-11T09:22:55.269Z,11.69
2022-11-11T09:25:44.839Z,11.79
2022-11-11T09:28:34.515Z,11.94
2022-11-11T09:34:33.568Z,11.93
2022-11-11T09:37:23.302Z,11.88
2022-11-11T09:40:17.414Z,12.02
2022-11-11T09:43:12.998Z,12.12
2022-11-11T09:46:09.172Z,12.12
2022-11-11T09:49:12.872Z,11.94
2022-11-11T09:52:04.606Z,12.08
2022-11-11T09:54:56.133Z,12.19
2022-11-11T09:57:49.697Z,12.10
2022-11-11T10:00:41.693Z,12.18
2022-11-11T10:03:32.782Z,12.31
2022-11-11T10:06:24.841Z,12.38
2022-11-11T10:09:19.979Z,12.24
2022-11-11T10:12:13.455Z,12.28
2022-11-11T10:15:05.582Z,12.44
2022-11-11T10:18:04.948Z,12.56
2022-11-11T10:20:56.429Z,12.48
2022-11-11T10:23:47.976Z,12.59
2022-11-11T10:26:39.365Z,12.62
2022-11-11T10:29:32.838Z,12.61
2022-11-11T10:32:23.714Z,12.66
2022-11-11T10:35:17.288Z,12.64
2022-11-11T10:38:19.431Z,12.78
2022-11-11T10:41:13.363Z,12.94
2022-11-11T10:44:03.508Z,12.87
2022-11-11T10:46:57.553Z,12.92
2022-11-11T10:49:52.404Z,12.88
2022-11-11T10:52:44.497Z,12.91
2022-11-11T10:55:36.988Z,12.91
2022-11-11T10:58:29.498Z,13.00
2022-11-11T11:01:22.155Z,12.85
2022-11-11T11:04:16.145Z,12.84
2022-11-11T11:07:07.944Z,12.94
2022-11-11T11:09:59.475Z,12.95
2022-11-11T11:12:52.473Z,13.00
2022-11-11T11:15:49.165Z,12.98
2022-11-11T11:18:43.116Z,12.94
2022-11-11T11:21:49.069Z,13.10
2022-11-11T11:24:43.645Z,13.11
2022-11-11T11:27:33.293Z,12.97
2022-11-11T11:30:23.655Z,13.17
2022-11-11T11:33:13.110Z,13.27
2022-11-11T11:36:16.722Z,13.18
2022-11-11T11:39:05.636Z,13.25
2022-11-11T11:41:54.841Z,13.33
2022-11-11T11:44:44.271Z,13.46
2022-11-11T11:47:43.620Z,13.43
2022-11-11T11:50:38.196Z,13.40
2022-11-11T11:53:39.996Z,13.37
2022-11-11T11:56:34.801Z,13.36
2022-11-11T11:59:28.599Z,13.45
2022-11-11T12:02:33.003Z,13.40
2022-11-11T12:05:26.631Z,13.38
2022-11-11T12:08:26.846Z,13.38
2022-11-11T12:11:19.956Z,13.31
2022-11-11T12:14:23.255Z,13.50
2022-11-11T12:17:17.742Z,13.57
2022-11-11T12:20:12.875Z,13.45
2022-11-11T12:23:07.626Z,13.40
2022-11-11T12:26:02.884Z,13.47
2022-11-11T12:29:04.821Z,13.57
2022-11-11T12:32:04.509Z,13.33
2022-11-11T12:35:04.565Z,13.29
2022-11-11T12:37:58.686Z,13.42
2022-11-11T12:40:53.847Z,13.65
2022-11-11T12:43:51.512Z,13.74
2022-11-11T12:46:51.362Z,13.73
2022-11-11T12:49:50.585Z,13.74
2022-11-11T12:52:45.301Z,13.79
2022-11-11T12:55:39.744Z,13.72
2022-11-11T12:58:42.097Z,13.61
2022-11-11T13:01:39.187Z,13.55
2022-11-11T13:04:37.169Z,13.57
2022-11-11T13:07:34.943Z,13.68
2022-11-11T13:10:31.213Z,13.78
2022-11-11T13:13:29.962Z,13.78
2022-11-11T13:16:23.214Z,13.82
2022-11-11T13:19:20.691Z,13.92
2022-11-11T13:22:15.787Z,13.84
2022-11-11T13:25:09.830Z,13.85
2022-11-11T13:28:03.360Z,13.73
2022-11-11T13:31:00.024Z,13.76
2022-11-11T13:33:51.665Z,13.80
2022-11-11T13:36:44.114Z,13.89
2022-11-11T13:39:35.673Z,14.07
2022-11-11T13:42:29.323Z,13.88
2022-11-11T13:45:26.018Z,13.90
2022-11-11T13:48:22.943Z,13.88
2022-11-11T13:51:15.559Z,13.85
2022-11-11T13:54:07.210Z,13.74
2022-11-11T13:57:03.053Z,13.62
2022-11-11T13:59:58.330Z,13.55
2022-11-11T14:02:48.065Z,13.41
2022-11-11T14:05:37.591Z,13.39
2022-11-11T14:08:43.214Z,13.48
2022-11-11T14:11:33.915Z,13.50
2022-11-11T14:14:40.374Z,13.47
2022-11-11T14:17:31.348Z,13.49
2022-11-11T14:20:38.191Z,13.52
2022-11-11T14:23:33.367Z,13.46
2022-11-11T14:26:32.553Z,13.43
2022-11-11T14:29:22.309Z,13.39
2022-11-11T14:32:24.985Z,13.37
2022-11-11T14:35:26.190Z,13.28
2022-11-11T14:38:29.130Z,13.29
2022-11-11T14:41:35.984Z,13.16
2022-11-11T14:44:38.951Z,13.06
2022-11-11T14:47:34.665Z,13.07
2022-11-11T14:50:41.626Z,12.95
2022-11-11T14:53:37.312Z,13.00
2022-11-11T14:56:29.293Z,13.10
2022-11-11T14:59:20.823Z,13.08
2022-11-11T15:02:19.878Z,12.97
2022-11-11T15:05:15.061Z,12.88
2022-11-11T15:08:12.245Z,12.87
2022-11-11T15:11:15.340Z,12.79
2022-11-11T15:16:26.782Z,13.01
2022-11-11T15:19:31.797Z,12.89
2022-11-11T15:22:35.744Z,12.91
2022-11-11T15:25:43.409Z,12.82
2022-11-11T15:28:47.549Z,12.86
2022-11-11T15:31:48.768Z,12.77
2022-11-11T15:34:44.587Z,12.74
2022-11-11T15:37:36.118Z,12.72
2022-11-11T15:40:31.858Z,12.75
2022-11-11T15:43:25.905Z,12.70
2022-11-11T15:46:26.350Z,12.67
2022-11-11T15:49:38.588Z,12.64
2022-11-11T15:52:35.014Z,12.67
2022-11-11T15:55:28.364Z,12.61
2022-11-11T15:58:28.825Z,12.58
2022-11-11T16:01:27.230Z,12.57
2022-11-11T16:04:53.809Z,12.53
2022-11-11T16:07:39.490Z,12.51
2022-11-11T16:10:34.015Z,12.47
2022-11-11T16:13:28.685Z,12.43
2022-11-11T16:16:26.262Z,12.41
2022-11-11T16:19:27.035Z,12.43
2022-11-11T16:22:22.044Z,12.40
2022-11-11T16:25:20.409Z,12.38
2022-11-11T16:28:13.320Z,12.34
2022-11-11T16:31:22.939Z,12.28
2022-11-11T16:34:36.854Z,12.26
2022-11-11T16:37:28.061Z,12.13
2022-11-11T16:40:38.761Z,12.12
2022-11-11T16:43:32.223Z,12.08
2022-11-11T16:49:28.707Z,12.05
2022-11-11T16:52:24.688Z,11.99
2022-11-11T16:55:25.119Z,11.97
2022-11-11T16:58:17.968Z,11.93
2022-11-11T17:01:10.310Z,11.91
2022-11-11T17:04:02.436Z,11.90
2022-11-11T17:06:56.681Z,11.94
2022-11-11T17:09:48.872Z,11.92
2022-11-11T17:12:43.477Z,11.86
2022-11-11T17:15:41.705Z,11.88
2022-11-11T17:18:33.878Z,11.86
2022-11-11T17:21:25.568Z,11.84
2022-11-11T17:24:17.827Z,11.79
2022-11-11T17:27:10.541Z,11.78
2022-11-11T17:30:02.189Z,11.76
2022-11-11T17:32:54.327Z,11.77
2022-11-11T17:35:53.098Z,11.77
2022-11-11T17:38:46.281Z,11.74
2022-11-11T17:41:38.950Z,11.71
2022-11-11T17:44:31.344Z,11.68
2022-11-11T17:47:25.026Z,11.61
2022-11-11T17:50:17.366Z,11.56
2022-11-11T17:53:23.468Z,11.55
2022-11-11T17:56:12.954Z,11.56
2022-11-11T17:59:06.164Z,11.55
2022-11-11T18:01:57.357Z,11.55
2022-11-11T18:04:48.407Z,11.50
2022-11-11T18:07:44.728Z,11.52
2022-11-11T18:10:36.560Z,11.41
2022-11-11T18:13:27.952Z,11.45
2022-11-11T18:16:22.357Z,11.36
2022-11-11T18:19:13.644Z,11.48
2022-11-11T18:22:05.480Z,11.42
2022-11-11T18:24:57.855Z,11.42
2022-11-11T18:27:49.003Z,11.41
2022-11-11T18:30:41.672Z,11.42
2022-11-11T18:33:34.022Z,11.45
2022-11-11T18:36:25.096Z,11.41
2022-11-11T18:39:16.853Z,11.40
2022-11-11T18:42:07.883Z,11.40
2022-11-11T18:44:59.965Z,11.40
2022-11-11T18:47:52.454Z,11.37
2022-11-11T18:50:45.418Z,11.19
2022-11-11T18:53:39.150Z,11.30
2022-11-11T18:56:33.063Z,11.28
2022-11-11T18:59:25.671Z,11.26
2022-11-11T19:02:16.475Z,11.31
2022-11-11T19:05:10.346Z,11.30
2022-11-11T19:08:01.626Z,11.31
2022-11-11T19:10:54.022Z,11.27
2022-11-11T19:13:45.474Z,11.30
2022-11-11T19:16:37.874Z,11.37
2022-11-11T19:19:29.397Z,11.35
2022-11-11T19:22:21.146Z,11.36
2022-11-11T19:25:12.929Z,11.18
2022-11-11T19:28:05.076Z,11.37
2022-11-11T19:30:56.510Z,11.41
2022-11-11T19:33:54.300Z,11.41
2022-11-11T19:36:47.448Z,11.39
2022-11-11T19:39:39.326Z,11.42
2022-11-11T19:42:32.516Z,11.40
2022-11-11T19:45:25.875Z,11.35
2022-11-11T19:48:18.954Z,11.22
2022-11-11T19:51:13.876Z,11.19
2022-11-11T19:54:07.498Z,11.08
2022-11-11T19:56:59.456Z,11.03
2022-11-11T19:59:52.667Z,11.07
2022-11-11T20:02:45.711Z,11.11
2022-11-11T20:05:41.276Z,11.12
2022-11-11T20:08:35.495Z,11.09
2022-11-11T20:11:29.193Z,11.01
2022-11-11T20:14:22.323Z,11.14
2022-11-11T20:17:19.716Z,11.15
2022-11-11T20:20:15.072Z,11.16
2022-11-11T20:23:11.947Z,11.13
2022-11-11T20:26:09.510Z,11.09
2022-11-11T20:29:02.913Z,11.05
2022-11-11T20:31:56.320Z,11.03
2022-11-11T20:34:49.805Z,10.88
2022-11-11T20:37:44.878Z,10.97
2022-11-11T20:40:37.988Z,10.94
2022-11-11T20:43:31.411Z,10.91
2022-11-11T20:46:23.774Z,10.81
2022-11-11T20:49:15.913Z,10.78
2022-11-11T20:52:07.233Z,10.78
2022-11-11T20:54:59.038Z,10.77
2022-11-11T20:57:50.405Z,10.63
2022-11-11T21:00:43.059Z,10.61
2022-11-11T21:03:34.107Z,10.63
2022-11-11T21:06:26.966Z,10.60
2022-11-11T21:09:17.751Z,10.69
2022-11-11T21:12:08.936Z,10.69
2022-11-11T21:15:00.054Z,10.68
2022-11-11T21:17:50.816Z,10.70
2022-11-11T21:20:42.141Z,10.71
2022-11-11T21:23:32.817Z,10.61
2022-11-11T21:26:25.207Z,10.83
2022-11-11T21:29:16.771Z,10.88
2022-11-11T21:32:10.175Z,10.72
2022-11-11T21:35:02.587Z,10.80
2022-11-11T21:37:54.467Z,10.76
2022-11-11T21:40:45.112Z,10.67
2022-11-11T21:43:37.502Z,10.71
2022-11-11T21:46:29.592Z,10.81
2022-11-11T21:49:21.195Z,10.78
2022-11-11T21:52:12.401Z,10.76
2022-11-11T21:55:03.402Z,10.79
2022-11-11T21:57:54.736Z,10.88
2022-11-11T22:00:45.758Z,10.94
2022-11-11T22:03:38.057Z,10.92
2022-11-11T22:06:29.844Z,10.93
2022-11-11T22:09:21.215Z,11.06
2022-11-11T22:12:12.095Z,11.08
2022-11-11T22:15:03.403Z,10.96
2022-11-11T22:17:57.013Z,10.83
2022-11-11T22:20:48.245Z,10.84
2022-11-11T22:23:40.132Z,11.05
2022-11-11T22:26:35.223Z,11.01
2022-11-11T22:29:26.394Z,11.06
2022-11-11T22:32:17.708Z,11.03
2022-11-11T22:35:09.101Z,11.10
2022-11-11T22:37:59.838Z,10.96
2022-11-11T22:40:50.624Z,10.90
2022-11-11T22:43:59.098Z,10.99
2022-11-11T22:46:50.803Z,11.00
2022-11-11T22:49:41.994Z,10.94
2022-11-11T22:52:33.276Z,10.82
2022-11-11T22:55:23.690Z,10.81
2022-11-11T22:58:14.201Z,10.80
2022-11-11T23:01:11.620Z,10.64
2022-11-11T23:04:05.373Z,10.68
2022-11-11T23:06:56.520Z,10.72
2022-11-11T23:09:46.968Z,10.72
2022-11-11T23:12:37.542Z,10.75
2022-11-11T23:15:28.379Z,10.70
2022-11-11T23:18:19.196Z,10.75
2022-11-11T23:21:12.188Z,10.77
2022-11-11T23:24:02.703Z,10.74
2022-11-11T23:26:53.551Z,10.73
2022-11-11T23:29:48.480Z,10.74
2022-11-11T23:32:42.274Z,10.70
2022-11-11T23:35:33.413Z,10.69
2022-11-11T23:38:24.224Z,10.65
2022-11-11T23:41:16.021Z,10.61
2022-11-11T23:44:08.936Z,10.59
2022-11-11T23:46:59.552Z,10.59
2022-11-11T23:49:50.374Z,10.56
2022-11-11T23:52:41.378Z,10.53
2022-11-11T23:55:32.700Z,10.49
2022-11-11T23:58:24.239Z,10.45
